<?xml version="1.0" encoding="UTF-8" standalone="no" ?>
<gpx xmlns="http://www.topografix.com/GPX/1/1" xmlns:xsi="http://www.w3.org/2001/XMLSchema-instance" xsi:schemaLocation="http://www.topografix.com/GPX/1/1 http://www.topografix.com/GPX/1/1/gpx.xsd" version="1.1" creator="VisuGPX - https://www.visugpx.com">
  <metadata>
    <name>13667581-ADEPS SPS 12092021</name>
  </metadata>
  <trk>
    <name><![CDATA[13667581-ADEPS SPS 12092021]]></name>
    <trkseg>
      <trkpt lat="50.58606" lon="4.06997">
        <ele>77</ele>
        <time>2021-09-06T09:51:39Z</time>
      </trkpt>
      <trkpt lat="50.58607" lon="4.0702">
        <ele>77</ele>
        <time>2021-09-06T09:51:51Z</time>
      </trkpt>
      <trkpt lat="50.58508" lon="4.07037">
        <ele>77</ele>
        <time>2021-09-06T09:53:10Z</time>
      </trkpt>
      <trkpt lat="50.58422" lon="4.07043">
        <ele>78</ele>
        <time>2021-09-06T09:54:19Z</time>
      </trkpt>
      <trkpt lat="50.58403" lon="4.0705">
        <ele>78</ele>
        <time>2021-09-06T09:54:35Z</time>
      </trkpt>
      <trkpt lat="50.58361" lon="4.06889">
        <ele>80</ele>
        <time>2021-09-06T09:56:03Z</time>
      </trkpt>
      <trkpt lat="50.58368" lon="4.06852">
        <ele>81</ele>
        <time>2021-09-06T09:56:23Z</time>
      </trkpt>
      <trkpt lat="50.58363" lon="4.06822">
        <ele>82</ele>
        <time>2021-09-06T09:56:39Z</time>
      </trkpt>
      <trkpt lat="50.58306" lon="4.06678">
        <ele>84</ele>
        <time>2021-09-06T09:58:05Z</time>
      </trkpt>
      <trkpt lat="50.58294" lon="4.06691">
        <ele>84</ele>
        <time>2021-09-06T09:58:17Z</time>
      </trkpt>
      <trkpt lat="50.58257" lon="4.06607">
        <ele>84</ele>
        <time>2021-09-06T09:59:09Z</time>
      </trkpt>
      <trkpt lat="50.58267" lon="4.06568">
        <ele>84</ele>
        <time>2021-09-06T09:59:30Z</time>
      </trkpt>
      <trkpt lat="50.58315" lon="4.06417">
        <ele>85</ele>
        <time>2021-09-06T10:00:56Z</time>
      </trkpt>
      <trkpt lat="50.58331" lon="4.06349">
        <ele>88</ele>
        <time>2021-09-06T10:01:33Z</time>
      </trkpt>
      <trkpt lat="50.58372" lon="4.06366">
        <ele>87</ele>
        <time>2021-09-06T10:02:07Z</time>
      </trkpt>
      <trkpt lat="50.58415" lon="4.0639">
        <ele>87</ele>
        <time>2021-09-06T10:02:43Z</time>
      </trkpt>
      <trkpt lat="50.58441" lon="4.06399">
        <ele>87</ele>
        <time>2021-09-06T10:03:05Z</time>
      </trkpt>
      <trkpt lat="50.58516" lon="4.06399">
        <ele>87</ele>
        <time>2021-09-06T10:04:05Z</time>
      </trkpt>
      <trkpt lat="50.58525" lon="4.06403">
        <ele>87</ele>
        <time>2021-09-06T10:04:12Z</time>
      </trkpt>
      <trkpt lat="50.58536" lon="4.06419">
        <ele>87</ele>
        <time>2021-09-06T10:04:24Z</time>
      </trkpt>
      <trkpt lat="50.5854" lon="4.06431">
        <ele>87</ele>
        <time>2021-09-06T10:04:31Z</time>
      </trkpt>
      <trkpt lat="50.58616" lon="4.06406">
        <ele>87</ele>
        <time>2021-09-06T10:05:33Z</time>
      </trkpt>
      <trkpt lat="50.58602" lon="4.06375">
        <ele>87</ele>
        <time>2021-09-06T10:05:53Z</time>
      </trkpt>
      <trkpt lat="50.58428" lon="4.0605">
        <ele>89</ele>
        <time>2021-09-06T10:09:29Z</time>
      </trkpt>
      <trkpt lat="50.58401" lon="4.06006">
        <ele>90</ele>
        <time>2021-09-06T10:10:00Z</time>
      </trkpt>
      <trkpt lat="50.58368" lon="4.05962">
        <ele>90</ele>
        <time>2021-09-06T10:10:34Z</time>
      </trkpt>
      <trkpt lat="50.58288" lon="4.05864">
        <ele>91</ele>
        <time>2021-09-06T10:11:56Z</time>
      </trkpt>
      <trkpt lat="50.58296" lon="4.0585">
        <ele>91</ele>
        <time>2021-09-06T10:12:05Z</time>
      </trkpt>
      <trkpt lat="50.58319" lon="4.0579">
        <ele>92</ele>
        <time>2021-09-06T10:12:41Z</time>
      </trkpt>
      <trkpt lat="50.58316" lon="4.05786">
        <ele>92</ele>
        <time>2021-09-06T10:12:44Z</time>
      </trkpt>
      <trkpt lat="50.58323" lon="4.05762">
        <ele>92</ele>
        <time>2021-09-06T10:12:57Z</time>
      </trkpt>
      <trkpt lat="50.58407" lon="4.05497">
        <ele>92</ele>
        <time>2021-09-06T10:15:28Z</time>
      </trkpt>
      <trkpt lat="50.5842" lon="4.05495">
        <ele>92</ele>
        <time>2021-09-06T10:15:38Z</time>
      </trkpt>
      <trkpt lat="50.5847" lon="4.05496">
        <ele>90</ele>
        <time>2021-09-06T10:16:18Z</time>
      </trkpt>
      <trkpt lat="50.58548" lon="4.05403">
        <ele>87</ele>
        <time>2021-09-06T10:17:37Z</time>
      </trkpt>
      <trkpt lat="50.58626" lon="4.05583">
        <ele>85</ele>
        <time>2021-09-06T10:19:28Z</time>
      </trkpt>
      <trkpt lat="50.58639" lon="4.05648">
        <ele>86</ele>
        <time>2021-09-06T10:20:02Z</time>
      </trkpt>
      <trkpt lat="50.58717" lon="4.05807">
        <ele>89</ele>
        <time>2021-09-06T10:21:44Z</time>
      </trkpt>
      <trkpt lat="50.58732" lon="4.05822">
        <ele>89</ele>
        <time>2021-09-06T10:21:59Z</time>
      </trkpt>
      <trkpt lat="50.58782" lon="4.05781">
        <ele>87</ele>
        <time>2021-09-06T10:22:44Z</time>
      </trkpt>
      <trkpt lat="50.5883" lon="4.05663">
        <ele>85</ele>
        <time>2021-09-06T10:23:55Z</time>
      </trkpt>
      <trkpt lat="50.58896" lon="4.05722">
        <ele>86</ele>
        <time>2021-09-06T10:24:56Z</time>
      </trkpt>
      <trkpt lat="50.5897" lon="4.05519">
        <ele>83</ele>
        <time>2021-09-06T10:26:55Z</time>
      </trkpt>
      <trkpt lat="50.59011" lon="4.0558">
        <ele>84</ele>
        <time>2021-09-06T10:27:40Z</time>
      </trkpt>
      <trkpt lat="50.59018" lon="4.05587">
        <ele>83</ele>
        <time>2021-09-06T10:27:47Z</time>
      </trkpt>
      <trkpt lat="50.59026" lon="4.0559">
        <ele>83</ele>
        <time>2021-09-06T10:27:53Z</time>
      </trkpt>
      <trkpt lat="50.59037" lon="4.05582">
        <ele>83</ele>
        <time>2021-09-06T10:28:03Z</time>
      </trkpt>
      <trkpt lat="50.59095" lon="4.05507">
        <ele>80</ele>
        <time>2021-09-06T10:29:03Z</time>
      </trkpt>
      <trkpt lat="50.59144" lon="4.05465">
        <ele>77</ele>
        <time>2021-09-06T10:29:48Z</time>
      </trkpt>
      <trkpt lat="50.59285" lon="4.05333">
        <ele>73</ele>
        <time>2021-09-06T10:31:59Z</time>
      </trkpt>
      <trkpt lat="50.59365" lon="4.05244">
        <ele>73</ele>
        <time>2021-09-06T10:33:17Z</time>
      </trkpt>
      <trkpt lat="50.59387" lon="4.05209">
        <ele>73</ele>
        <time>2021-09-06T10:33:42Z</time>
      </trkpt>
      <trkpt lat="50.5941" lon="4.05157">
        <ele>73</ele>
        <time>2021-09-06T10:34:15Z</time>
      </trkpt>
      <trkpt lat="50.59429" lon="4.0507">
        <ele>72</ele>
        <time>2021-09-06T10:35:01Z</time>
      </trkpt>
      <trkpt lat="50.59448" lon="4.05027">
        <ele>71</ele>
        <time>2021-09-06T10:35:28Z</time>
      </trkpt>
      <trkpt lat="50.59474" lon="4.04987">
        <ele>71</ele>
        <time>2021-09-06T10:35:57Z</time>
      </trkpt>
      <trkpt lat="50.59526" lon="4.04916">
        <ele>72</ele>
        <time>2021-09-06T10:36:52Z</time>
      </trkpt>
      <trkpt lat="50.59569" lon="4.04841">
        <ele>73</ele>
        <time>2021-09-06T10:37:44Z</time>
      </trkpt>
      <trkpt lat="50.59616" lon="4.04751">
        <ele>71</ele>
        <time>2021-09-06T10:38:43Z</time>
      </trkpt>
      <trkpt lat="50.59641" lon="4.04715">
        <ele>71</ele>
        <time>2021-09-06T10:39:10Z</time>
      </trkpt>
      <trkpt lat="50.5968" lon="4.04666">
        <ele>70</ele>
        <time>2021-09-06T10:39:50Z</time>
      </trkpt>
      <trkpt lat="50.59727" lon="4.04618">
        <ele>69</ele>
        <time>2021-09-06T10:40:35Z</time>
      </trkpt>
      <trkpt lat="50.5975" lon="4.04585">
        <ele>68</ele>
        <time>2021-09-06T10:41:00Z</time>
      </trkpt>
      <trkpt lat="50.59774" lon="4.04541">
        <ele>68</ele>
        <time>2021-09-06T10:41:29Z</time>
      </trkpt>
      <trkpt lat="50.59782" lon="4.04532">
        <ele>69</ele>
        <time>2021-09-06T10:41:37Z</time>
      </trkpt>
      <trkpt lat="50.59806" lon="4.04522">
        <ele>69</ele>
        <time>2021-09-06T10:41:57Z</time>
      </trkpt>
      <trkpt lat="50.59863" lon="4.04679">
        <ele>65</ele>
        <time>2021-09-06T10:43:29Z</time>
      </trkpt>
      <trkpt lat="50.59887" lon="4.04723">
        <ele>65</ele>
        <time>2021-09-06T10:43:58Z</time>
      </trkpt>
      <trkpt lat="50.59913" lon="4.04756">
        <ele>65</ele>
        <time>2021-09-06T10:44:25Z</time>
      </trkpt>
      <trkpt lat="50.59926" lon="4.04765">
        <ele>65</ele>
        <time>2021-09-06T10:44:36Z</time>
      </trkpt>
      <trkpt lat="50.59959" lon="4.04772">
        <ele>65</ele>
        <time>2021-09-06T10:45:03Z</time>
      </trkpt>
      <trkpt lat="50.59968" lon="4.04778">
        <ele>65</ele>
        <time>2021-09-06T10:45:11Z</time>
      </trkpt>
      <trkpt lat="50.59985" lon="4.04808">
        <ele>65</ele>
        <time>2021-09-06T10:45:31Z</time>
      </trkpt>
      <trkpt lat="50.59988" lon="4.04821">
        <ele>64</ele>
        <time>2021-09-06T10:45:38Z</time>
      </trkpt>
      <trkpt lat="50.59988" lon="4.0483">
        <ele>64</ele>
        <time>2021-09-06T10:45:43Z</time>
      </trkpt>
      <trkpt lat="50.59971" lon="4.04854">
        <ele>65</ele>
        <time>2021-09-06T10:46:01Z</time>
      </trkpt>
      <trkpt lat="50.59966" lon="4.04865">
        <ele>65</ele>
        <time>2021-09-06T10:46:08Z</time>
      </trkpt>
      <trkpt lat="50.59965" lon="4.0488">
        <ele>65</ele>
        <time>2021-09-06T10:46:16Z</time>
      </trkpt>
      <trkpt lat="50.59969" lon="4.04933">
        <ele>65</ele>
        <time>2021-09-06T10:46:43Z</time>
      </trkpt>
      <trkpt lat="50.59961" lon="4.04965">
        <ele>66</ele>
        <time>2021-09-06T10:47:00Z</time>
      </trkpt>
      <trkpt lat="50.59942" lon="4.05002">
        <ele>68</ele>
        <time>2021-09-06T10:47:24Z</time>
      </trkpt>
      <trkpt lat="50.59904" lon="4.05046">
        <ele>69</ele>
        <time>2021-09-06T10:48:02Z</time>
      </trkpt>
      <trkpt lat="50.59901" lon="4.05055">
        <ele>69</ele>
        <time>2021-09-06T10:48:07Z</time>
      </trkpt>
      <trkpt lat="50.59902" lon="4.05071">
        <ele>70</ele>
        <time>2021-09-06T10:48:16Z</time>
      </trkpt>
      <trkpt lat="50.59933" lon="4.05161">
        <ele>73</ele>
        <time>2021-09-06T10:49:08Z</time>
      </trkpt>
      <trkpt lat="50.59954" lon="4.05232">
        <ele>73</ele>
        <time>2021-09-06T10:49:47Z</time>
      </trkpt>
      <trkpt lat="50.59966" lon="4.05319">
        <ele>75</ele>
        <time>2021-09-06T10:50:33Z</time>
      </trkpt>
      <trkpt lat="50.59984" lon="4.05327">
        <ele>75</ele>
        <time>2021-09-06T10:50:48Z</time>
      </trkpt>
      <trkpt lat="50.59996" lon="4.0533">
        <ele>75</ele>
        <time>2021-09-06T10:50:57Z</time>
      </trkpt>
      <trkpt lat="50.60012" lon="4.0533">
        <ele>75</ele>
        <time>2021-09-06T10:51:10Z</time>
      </trkpt>
      <trkpt lat="50.60021" lon="4.05333">
        <ele>75</ele>
        <time>2021-09-06T10:51:18Z</time>
      </trkpt>
      <trkpt lat="50.60065" lon="4.05356">
        <ele>75</ele>
        <time>2021-09-06T10:51:55Z</time>
      </trkpt>
      <trkpt lat="50.60091" lon="4.05359">
        <ele>76</ele>
        <time>2021-09-06T10:52:16Z</time>
      </trkpt>
      <trkpt lat="50.60121" lon="4.05353">
        <ele>75</ele>
        <time>2021-09-06T10:52:40Z</time>
      </trkpt>
      <trkpt lat="50.60126" lon="4.05342">
        <ele>75</ele>
        <time>2021-09-06T10:52:47Z</time>
      </trkpt>
      <trkpt lat="50.60142" lon="4.05325">
        <ele>74</ele>
        <time>2021-09-06T10:53:02Z</time>
      </trkpt>
      <trkpt lat="50.60152" lon="4.0532">
        <ele>74</ele>
        <time>2021-09-06T10:53:10Z</time>
      </trkpt>
      <trkpt lat="50.60184" lon="4.05316">
        <ele>73</ele>
        <time>2021-09-06T10:53:36Z</time>
      </trkpt>
      <trkpt lat="50.60196" lon="4.05312">
        <ele>73</ele>
        <time>2021-09-06T10:53:46Z</time>
      </trkpt>
      <trkpt lat="50.60286" lon="4.05256">
        <ele>71</ele>
        <time>2021-09-06T10:55:03Z</time>
      </trkpt>
      <trkpt lat="50.60291" lon="4.05218">
        <ele>70</ele>
        <time>2021-09-06T10:55:23Z</time>
      </trkpt>
      <trkpt lat="50.60281" lon="4.05159">
        <ele>67</ele>
        <time>2021-09-06T10:55:54Z</time>
      </trkpt>
      <trkpt lat="50.60282" lon="4.05147">
        <ele>67</ele>
        <time>2021-09-06T10:56:00Z</time>
      </trkpt>
      <trkpt lat="50.60289" lon="4.05133">
        <ele>67</ele>
        <time>2021-09-06T10:56:09Z</time>
      </trkpt>
      <trkpt lat="50.6033" lon="4.05094">
        <ele>69</ele>
        <time>2021-09-06T10:56:48Z</time>
      </trkpt>
      <trkpt lat="50.60347" lon="4.05062">
        <ele>69</ele>
        <time>2021-09-06T10:57:09Z</time>
      </trkpt>
      <trkpt lat="50.60352" lon="4.05037">
        <ele>68</ele>
        <time>2021-09-06T10:57:22Z</time>
      </trkpt>
      <trkpt lat="50.60351" lon="4.05028">
        <ele>68</ele>
        <time>2021-09-06T10:57:27Z</time>
      </trkpt>
      <trkpt lat="50.60347" lon="4.05016">
        <ele>67</ele>
        <time>2021-09-06T10:57:34Z</time>
      </trkpt>
      <trkpt lat="50.6033" lon="4.04984">
        <ele>65</ele>
        <time>2021-09-06T10:57:55Z</time>
      </trkpt>
      <trkpt lat="50.60331" lon="4.04961">
        <ele>65</ele>
        <time>2021-09-06T10:58:07Z</time>
      </trkpt>
      <trkpt lat="50.60376" lon="4.04858">
        <ele>65</ele>
        <time>2021-09-06T10:59:10Z</time>
      </trkpt>
      <trkpt lat="50.60388" lon="4.04804">
        <ele>66</ele>
        <time>2021-09-06T10:59:39Z</time>
      </trkpt>
      <trkpt lat="50.60392" lon="4.04772">
        <ele>66</ele>
        <time>2021-09-06T10:59:56Z</time>
      </trkpt>
      <trkpt lat="50.60391" lon="4.04728">
        <ele>66</ele>
        <time>2021-09-06T11:00:18Z</time>
      </trkpt>
      <trkpt lat="50.60387" lon="4.04678">
        <ele>64</ele>
        <time>2021-09-06T11:00:44Z</time>
      </trkpt>
      <trkpt lat="50.60375" lon="4.0461">
        <ele>64</ele>
        <time>2021-09-06T11:01:20Z</time>
      </trkpt>
      <trkpt lat="50.6043" lon="4.04587">
        <ele>64</ele>
        <time>2021-09-06T11:02:05Z</time>
      </trkpt>
      <trkpt lat="50.60473" lon="4.04562">
        <ele>66</ele>
        <time>2021-09-06T11:02:42Z</time>
      </trkpt>
      <trkpt lat="50.605" lon="4.04543">
        <ele>68</ele>
        <time>2021-09-06T11:03:06Z</time>
      </trkpt>
      <trkpt lat="50.60535" lon="4.04509">
        <ele>70</ele>
        <time>2021-09-06T11:03:39Z</time>
      </trkpt>
      <trkpt lat="50.60597" lon="4.04439">
        <ele>71</ele>
        <time>2021-09-06T11:04:40Z</time>
      </trkpt>
      <trkpt lat="50.60686" lon="4.04328">
        <ele>71</ele>
        <time>2021-09-06T11:06:11Z</time>
      </trkpt>
      <trkpt lat="50.60736" lon="4.04271">
        <ele>71</ele>
        <time>2021-09-06T11:07:00Z</time>
      </trkpt>
      <trkpt lat="50.60775" lon="4.04251">
        <ele>72</ele>
        <time>2021-09-06T11:07:33Z</time>
      </trkpt>
      <trkpt lat="50.60716" lon="4.0418">
        <ele>72</ele>
        <time>2021-09-06T11:08:32Z</time>
      </trkpt>
      <trkpt lat="50.60667" lon="4.04148">
        <ele>72</ele>
        <time>2021-09-06T11:09:15Z</time>
      </trkpt>
      <trkpt lat="50.6062" lon="4.0413">
        <ele>71</ele>
        <time>2021-09-06T11:09:53Z</time>
      </trkpt>
      <trkpt lat="50.60561" lon="4.04125">
        <ele>72</ele>
        <time>2021-09-06T11:10:41Z</time>
      </trkpt>
      <trkpt lat="50.6051" lon="4.04115">
        <ele>72</ele>
        <time>2021-09-06T11:11:22Z</time>
      </trkpt>
      <trkpt lat="50.60457" lon="4.04081">
        <ele>72</ele>
        <time>2021-09-06T11:12:08Z</time>
      </trkpt>
      <trkpt lat="50.60426" lon="4.04068">
        <ele>72</ele>
        <time>2021-09-06T11:12:33Z</time>
      </trkpt>
      <trkpt lat="50.60402" lon="4.04071">
        <ele>72</ele>
        <time>2021-09-06T11:12:53Z</time>
      </trkpt>
      <trkpt lat="50.60364" lon="4.04095">
        <ele>74</ele>
        <time>2021-09-06T11:13:25Z</time>
      </trkpt>
      <trkpt lat="50.60201" lon="4.04214">
        <ele>79</ele>
        <time>2021-09-06T11:15:49Z</time>
      </trkpt>
      <trkpt lat="50.60192" lon="4.04211">
        <ele>79</ele>
        <time>2021-09-06T11:15:57Z</time>
      </trkpt>
      <trkpt lat="50.60179" lon="4.04202">
        <ele>79</ele>
        <time>2021-09-06T11:16:08Z</time>
      </trkpt>
      <trkpt lat="50.59798" lon="4.0377">
        <ele>79</ele>
        <time>2021-09-06T11:22:24Z</time>
      </trkpt>
      <trkpt lat="50.59664" lon="4.03669">
        <ele>81</ele>
        <time>2021-09-06T11:24:23Z</time>
      </trkpt>
      <trkpt lat="50.59648" lon="4.03709">
        <ele>82</ele>
        <time>2021-09-06T11:24:47Z</time>
      </trkpt>
      <trkpt lat="50.59636" lon="4.03706">
        <ele>81</ele>
        <time>2021-09-06T11:24:57Z</time>
      </trkpt>
      <trkpt lat="50.59628" lon="4.03709">
        <ele>82</ele>
        <time>2021-09-06T11:25:03Z</time>
      </trkpt>
      <trkpt lat="50.59608" lon="4.03724">
        <ele>81</ele>
        <time>2021-09-06T11:25:21Z</time>
      </trkpt>
      <trkpt lat="50.59589" lon="4.03723">
        <ele>81</ele>
        <time>2021-09-06T11:25:36Z</time>
      </trkpt>
      <trkpt lat="50.59465" lon="4.03628">
        <ele>83</ele>
        <time>2021-09-06T11:27:27Z</time>
      </trkpt>
      <trkpt lat="50.59409" lon="4.03574">
        <ele>82</ele>
        <time>2021-09-06T11:28:19Z</time>
      </trkpt>
      <trkpt lat="50.59341" lon="4.03479">
        <ele>79</ele>
        <time>2021-09-06T11:29:32Z</time>
      </trkpt>
      <trkpt lat="50.59247" lon="4.03314">
        <ele>78</ele>
        <time>2021-09-06T11:31:25Z</time>
      </trkpt>
      <trkpt lat="50.59185" lon="4.03204">
        <ele>74</ele>
        <time>2021-09-06T11:32:39Z</time>
      </trkpt>
      <trkpt lat="50.59147" lon="4.03126">
        <ele>73</ele>
        <time>2021-09-06T11:33:29Z</time>
      </trkpt>
      <trkpt lat="50.59139" lon="4.031">
        <ele>73</ele>
        <time>2021-09-06T11:33:44Z</time>
      </trkpt>
      <trkpt lat="50.59138" lon="4.03058">
        <ele>72</ele>
        <time>2021-09-06T11:34:05Z</time>
      </trkpt>
      <trkpt lat="50.59146" lon="4.02959">
        <ele>72</ele>
        <time>2021-09-06T11:34:56Z</time>
      </trkpt>
      <trkpt lat="50.59144" lon="4.02942">
        <ele>72</ele>
        <time>2021-09-06T11:35:05Z</time>
      </trkpt>
      <trkpt lat="50.59138" lon="4.02932">
        <ele>72</ele>
        <time>2021-09-06T11:35:12Z</time>
      </trkpt>
      <trkpt lat="50.59152" lon="4.02783">
        <ele>70</ele>
        <time>2021-09-06T11:36:28Z</time>
      </trkpt>
      <trkpt lat="50.59147" lon="4.02726">
        <ele>70</ele>
        <time>2021-09-06T11:36:58Z</time>
      </trkpt>
      <trkpt lat="50.5914" lon="4.02681">
        <ele>70</ele>
        <time>2021-09-06T11:37:21Z</time>
      </trkpt>
      <trkpt lat="50.59142" lon="4.02643">
        <ele>71</ele>
        <time>2021-09-06T11:37:41Z</time>
      </trkpt>
      <trkpt lat="50.5917" lon="4.02534">
        <ele>74</ele>
        <time>2021-09-06T11:38:40Z</time>
      </trkpt>
      <trkpt lat="50.5917" lon="4.02509">
        <ele>75</ele>
        <time>2021-09-06T11:38:53Z</time>
      </trkpt>
      <trkpt lat="50.59166" lon="4.02489">
        <ele>75</ele>
        <time>2021-09-06T11:39:04Z</time>
      </trkpt>
      <trkpt lat="50.59107" lon="4.02323">
        <ele>77</ele>
        <time>2021-09-06T11:40:40Z</time>
      </trkpt>
      <trkpt lat="50.59084" lon="4.0225">
        <ele>75</ele>
        <time>2021-09-06T11:41:22Z</time>
      </trkpt>
      <trkpt lat="50.59078" lon="4.02221">
        <ele>75</ele>
        <time>2021-09-06T11:41:37Z</time>
      </trkpt>
      <trkpt lat="50.59096" lon="4.02027">
        <ele>77</ele>
        <time>2021-09-06T11:43:17Z</time>
      </trkpt>
      <trkpt lat="50.59103" lon="4.02012">
        <ele>78</ele>
        <time>2021-09-06T11:43:27Z</time>
      </trkpt>
      <trkpt lat="50.59111" lon="4.02002">
        <ele>78</ele>
        <time>2021-09-06T11:43:35Z</time>
      </trkpt>
      <trkpt lat="50.59162" lon="4.01975">
        <ele>81</ele>
        <time>2021-09-06T11:44:18Z</time>
      </trkpt>
      <trkpt lat="50.59175" lon="4.01965">
        <ele>81</ele>
        <time>2021-09-06T11:44:29Z</time>
      </trkpt>
      <trkpt lat="50.59178" lon="4.01956">
        <ele>81</ele>
        <time>2021-09-06T11:44:35Z</time>
      </trkpt>
      <trkpt lat="50.59181" lon="4.01927">
        <ele>82</ele>
        <time>2021-09-06T11:44:49Z</time>
      </trkpt>
      <trkpt lat="50.59181" lon="4.01835">
        <ele>82</ele>
        <time>2021-09-06T11:45:36Z</time>
      </trkpt>
      <trkpt lat="50.59195" lon="4.01657">
        <ele>84</ele>
        <time>2021-09-06T11:47:07Z</time>
      </trkpt>
      <trkpt lat="50.59225" lon="4.01426">
        <ele>82</ele>
        <time>2021-09-06T11:49:07Z</time>
      </trkpt>
      <trkpt lat="50.59234" lon="4.01336">
        <ele>82</ele>
        <time>2021-09-06T11:49:54Z</time>
      </trkpt>
      <trkpt lat="50.5924" lon="4.01307">
        <ele>83</ele>
        <time>2021-09-06T11:50:09Z</time>
      </trkpt>
      <trkpt lat="50.59296" lon="4.01162">
        <ele>82</ele>
        <time>2021-09-06T11:51:35Z</time>
      </trkpt>
      <trkpt lat="50.59301" lon="4.01143">
        <ele>82</ele>
        <time>2021-09-06T11:51:46Z</time>
      </trkpt>
      <trkpt lat="50.59305" lon="4.01005">
        <ele>79</ele>
        <time>2021-09-06T11:52:56Z</time>
      </trkpt>
      <trkpt lat="50.59313" lon="4.00937">
        <ele>77</ele>
        <time>2021-09-06T11:53:31Z</time>
      </trkpt>
      <trkpt lat="50.59307" lon="4.00905">
        <ele>77</ele>
        <time>2021-09-06T11:53:48Z</time>
      </trkpt>
      <trkpt lat="50.59266" lon="4.00803">
        <ele>78</ele>
        <time>2021-09-06T11:54:50Z</time>
      </trkpt>
      <trkpt lat="50.59245" lon="4.00741">
        <ele>79</ele>
        <time>2021-09-06T11:55:25Z</time>
      </trkpt>
      <trkpt lat="50.5924" lon="4.00719">
        <ele>79</ele>
        <time>2021-09-06T11:55:37Z</time>
      </trkpt>
      <trkpt lat="50.59226" lon="4.00688">
        <ele>79</ele>
        <time>2021-09-06T11:55:56Z</time>
      </trkpt>
      <trkpt lat="50.59198" lon="4.00638">
        <ele>79</ele>
        <time>2021-09-06T11:56:30Z</time>
      </trkpt>
      <trkpt lat="50.59154" lon="4.00572">
        <ele>79</ele>
        <time>2021-09-06T11:57:19Z</time>
      </trkpt>
      <trkpt lat="50.59141" lon="4.0054">
        <ele>80</ele>
        <time>2021-09-06T11:57:38Z</time>
      </trkpt>
      <trkpt lat="50.59121" lon="4.00456">
        <ele>81</ele>
        <time>2021-09-06T11:58:24Z</time>
      </trkpt>
      <trkpt lat="50.59065" lon="4.0036">
        <ele>82</ele>
        <time>2021-09-06T11:59:30Z</time>
      </trkpt>
      <trkpt lat="50.5906" lon="4.00339">
        <ele>83</ele>
        <time>2021-09-06T11:59:42Z</time>
      </trkpt>
      <trkpt lat="50.59062" lon="4.0032">
        <ele>83</ele>
        <time>2021-09-06T11:59:51Z</time>
      </trkpt>
      <trkpt lat="50.59092" lon="4.00239">
        <ele>83</ele>
        <time>2021-09-06T12:00:39Z</time>
      </trkpt>
      <trkpt lat="50.5914" lon="4.00138">
        <ele>83</ele>
        <time>2021-09-06T12:01:43Z</time>
      </trkpt>
      <trkpt lat="50.59175" lon="4.00058">
        <ele>83</ele>
        <time>2021-09-06T12:02:33Z</time>
      </trkpt>
      <trkpt lat="50.59224" lon="3.99923">
        <ele>82</ele>
        <time>2021-09-06T12:03:52Z</time>
      </trkpt>
      <trkpt lat="50.59254" lon="3.99899">
        <ele>82</ele>
        <time>2021-09-06T12:04:19Z</time>
      </trkpt>
      <trkpt lat="50.59261" lon="3.99887">
        <ele>82</ele>
        <time>2021-09-06T12:04:27Z</time>
      </trkpt>
      <trkpt lat="50.59266" lon="3.99873">
        <ele>83</ele>
        <time>2021-09-06T12:04:35Z</time>
      </trkpt>
      <trkpt lat="50.59271" lon="3.99834">
        <ele>83</ele>
        <time>2021-09-06T12:04:55Z</time>
      </trkpt>
      <trkpt lat="50.58985" lon="3.99694">
        <ele>87</ele>
        <time>2021-09-06T12:08:55Z</time>
      </trkpt>
      <trkpt lat="50.58905" lon="3.99645">
        <ele>86</ele>
        <time>2021-09-06T12:10:04Z</time>
      </trkpt>
      <trkpt lat="50.58944" lon="3.9948">
        <ele>87</ele>
        <time>2021-09-06T12:11:33Z</time>
      </trkpt>
      <trkpt lat="50.5895" lon="3.99427">
        <ele>88</ele>
        <time>2021-09-06T12:12:01Z</time>
      </trkpt>
      <trkpt lat="50.58954" lon="3.99362">
        <ele>87</ele>
        <time>2021-09-06T12:12:34Z</time>
      </trkpt>
      <trkpt lat="50.58946" lon="3.99291">
        <ele>86</ele>
        <time>2021-09-06T12:13:10Z</time>
      </trkpt>
      <trkpt lat="50.58947" lon="3.99274">
        <ele>85</ele>
        <time>2021-09-06T12:13:19Z</time>
      </trkpt>
      <trkpt lat="50.58964" lon="3.992">
        <ele>84</ele>
        <time>2021-09-06T12:13:59Z</time>
      </trkpt>
      <trkpt lat="50.58973" lon="3.9912">
        <ele>83</ele>
        <time>2021-09-06T12:14:40Z</time>
      </trkpt>
      <trkpt lat="50.58979" lon="3.99086">
        <ele>83</ele>
        <time>2021-09-06T12:14:58Z</time>
      </trkpt>
      <trkpt lat="50.58985" lon="3.99072">
        <ele>84</ele>
        <time>2021-09-06T12:15:07Z</time>
      </trkpt>
      <trkpt lat="50.58999" lon="3.9905">
        <ele>84</ele>
        <time>2021-09-06T12:15:23Z</time>
      </trkpt>
      <trkpt lat="50.5913" lon="3.98857">
        <ele>87</ele>
        <time>2021-09-06T12:17:46Z</time>
      </trkpt>
      <trkpt lat="50.59136" lon="3.98839">
        <ele>88</ele>
        <time>2021-09-06T12:17:57Z</time>
      </trkpt>
      <trkpt lat="50.59148" lon="3.98735">
        <ele>89</ele>
        <time>2021-09-06T12:18:50Z</time>
      </trkpt>
      <trkpt lat="50.59174" lon="3.98609">
        <ele>86</ele>
        <time>2021-09-06T12:19:58Z</time>
      </trkpt>
      <trkpt lat="50.59175" lon="3.98588">
        <ele>86</ele>
        <time>2021-09-06T12:20:09Z</time>
      </trkpt>
      <trkpt lat="50.59164" lon="3.98457">
        <ele>86</ele>
        <time>2021-09-06T12:21:16Z</time>
      </trkpt>
      <trkpt lat="50.59166" lon="3.98311">
        <ele>90</ele>
        <time>2021-09-06T12:22:30Z</time>
      </trkpt>
      <trkpt lat="50.59152" lon="3.98182">
        <ele>90</ele>
        <time>2021-09-06T12:23:36Z</time>
      </trkpt>
      <trkpt lat="50.59133" lon="3.98076">
        <ele>91</ele>
        <time>2021-09-06T12:24:32Z</time>
      </trkpt>
      <trkpt lat="50.59118" lon="3.97898">
        <ele>91</ele>
        <time>2021-09-06T12:26:04Z</time>
      </trkpt>
      <trkpt lat="50.59112" lon="3.97858">
        <ele>90</ele>
        <time>2021-09-06T12:26:25Z</time>
      </trkpt>
      <trkpt lat="50.5906" lon="3.9789">
        <ele>89</ele>
        <time>2021-09-06T12:27:09Z</time>
      </trkpt>
      <trkpt lat="50.59038" lon="3.97894">
        <ele>89</ele>
        <time>2021-09-06T12:27:27Z</time>
      </trkpt>
      <trkpt lat="50.5902" lon="3.97894">
        <ele>88</ele>
        <time>2021-09-06T12:27:41Z</time>
      </trkpt>
      <trkpt lat="50.58943" lon="3.97874">
        <ele>88</ele>
        <time>2021-09-06T12:28:44Z</time>
      </trkpt>
      <trkpt lat="50.58922" lon="3.97876">
        <ele>88</ele>
        <time>2021-09-06T12:29:01Z</time>
      </trkpt>
      <trkpt lat="50.58908" lon="3.97881">
        <ele>88</ele>
        <time>2021-09-06T12:29:12Z</time>
      </trkpt>
      <trkpt lat="50.58872" lon="3.97903">
        <ele>88</ele>
        <time>2021-09-06T12:29:43Z</time>
      </trkpt>
      <trkpt lat="50.58862" lon="3.97914">
        <ele>88</ele>
        <time>2021-09-06T12:29:53Z</time>
      </trkpt>
      <trkpt lat="50.58853" lon="3.9793">
        <ele>88</ele>
        <time>2021-09-06T12:30:04Z</time>
      </trkpt>
      <trkpt lat="50.58648" lon="3.98406">
        <ele>93</ele>
        <time>2021-09-06T12:34:56Z</time>
      </trkpt>
      <trkpt lat="50.58609" lon="3.98583">
        <ele>96</ele>
        <time>2021-09-06T12:36:31Z</time>
      </trkpt>
      <trkpt lat="50.58584" lon="3.98751">
        <ele>99</ele>
        <time>2021-09-06T12:37:59Z</time>
      </trkpt>
      <trkpt lat="50.5857" lon="3.98822">
        <ele>98</ele>
        <time>2021-09-06T12:38:37Z</time>
      </trkpt>
      <trkpt lat="50.58564" lon="3.98829">
        <ele>98</ele>
        <time>2021-09-06T12:38:43Z</time>
      </trkpt>
      <trkpt lat="50.58543" lon="3.98831">
        <ele>97</ele>
        <time>2021-09-06T12:39:00Z</time>
      </trkpt>
      <trkpt lat="50.58508" lon="3.9884">
        <ele>96</ele>
        <time>2021-09-06T12:39:28Z</time>
      </trkpt>
      <trkpt lat="50.58493" lon="3.98842">
        <ele>96</ele>
        <time>2021-09-06T12:39:40Z</time>
      </trkpt>
      <trkpt lat="50.58482" lon="3.9884">
        <ele>96</ele>
        <time>2021-09-06T12:39:49Z</time>
      </trkpt>
      <trkpt lat="50.58451" lon="3.98995">
        <ele>96</ele>
        <time>2021-09-06T12:41:12Z</time>
      </trkpt>
      <trkpt lat="50.58423" lon="3.9905">
        <ele>95</ele>
        <time>2021-09-06T12:41:48Z</time>
      </trkpt>
      <trkpt lat="50.58408" lon="3.99105">
        <ele>95</ele>
        <time>2021-09-06T12:42:18Z</time>
      </trkpt>
      <trkpt lat="50.58389" lon="3.99195">
        <ele>95</ele>
        <time>2021-09-06T12:43:06Z</time>
      </trkpt>
      <trkpt lat="50.58374" lon="3.99223">
        <ele>95</ele>
        <time>2021-09-06T12:43:25Z</time>
      </trkpt>
      <trkpt lat="50.58369" lon="3.99224">
        <ele>95</ele>
        <time>2021-09-06T12:43:29Z</time>
      </trkpt>
      <trkpt lat="50.58356" lon="3.99308">
        <ele>95</ele>
        <time>2021-09-06T12:44:13Z</time>
      </trkpt>
      <trkpt lat="50.58354" lon="3.99351">
        <ele>95</ele>
        <time>2021-09-06T12:44:35Z</time>
      </trkpt>
      <trkpt lat="50.58356" lon="3.99375">
        <ele>95</ele>
        <time>2021-09-06T12:44:47Z</time>
      </trkpt>
      <trkpt lat="50.58407" lon="3.99406">
        <ele>95</ele>
        <time>2021-09-06T12:45:31Z</time>
      </trkpt>
      <trkpt lat="50.58387" lon="3.99537">
        <ele>96</ele>
        <time>2021-09-06T12:46:39Z</time>
      </trkpt>
      <trkpt lat="50.58388" lon="3.99559">
        <ele>96</ele>
        <time>2021-09-06T12:46:51Z</time>
      </trkpt>
      <trkpt lat="50.58395" lon="3.99584">
        <ele>96</ele>
        <time>2021-09-06T12:47:04Z</time>
      </trkpt>
      <trkpt lat="50.58469" lon="3.99718">
        <ele>96</ele>
        <time>2021-09-06T12:48:35Z</time>
      </trkpt>
      <trkpt lat="50.58505" lon="3.99773">
        <ele>95</ele>
        <time>2021-09-06T12:49:15Z</time>
      </trkpt>
      <trkpt lat="50.58511" lon="3.99793">
        <ele>95</ele>
        <time>2021-09-06T12:49:26Z</time>
      </trkpt>
      <trkpt lat="50.58561" lon="4.00027">
        <ele>95</ele>
        <time>2021-09-06T12:51:32Z</time>
      </trkpt>
      <trkpt lat="50.58672" lon="4.0024">
        <ele>95</ele>
        <time>2021-09-06T12:53:52Z</time>
      </trkpt>
      <trkpt lat="50.58709" lon="4.00335">
        <ele>95</ele>
        <time>2021-09-06T12:54:48Z</time>
      </trkpt>
      <trkpt lat="50.58743" lon="4.00446">
        <ele>95</ele>
        <time>2021-09-06T12:55:51Z</time>
      </trkpt>
      <trkpt lat="50.58806" lon="4.00632">
        <ele>93</ele>
        <time>2021-09-06T12:57:38Z</time>
      </trkpt>
      <trkpt lat="50.58853" lon="4.00739">
        <ele>92</ele>
        <time>2021-09-06T12:58:44Z</time>
      </trkpt>
      <trkpt lat="50.58853" lon="4.00747">
        <ele>92</ele>
        <time>2021-09-06T12:58:48Z</time>
      </trkpt>
      <trkpt lat="50.5885" lon="4.00754">
        <ele>92</ele>
        <time>2021-09-06T12:58:53Z</time>
      </trkpt>
      <trkpt lat="50.5881" lon="4.00795">
        <ele>90</ele>
        <time>2021-09-06T12:59:31Z</time>
      </trkpt>
      <trkpt lat="50.58701" lon="4.00891">
        <ele>83</ele>
        <time>2021-09-06T13:01:11Z</time>
      </trkpt>
      <trkpt lat="50.58674" lon="4.00922">
        <ele>81</ele>
        <time>2021-09-06T13:01:38Z</time>
      </trkpt>
      <trkpt lat="50.58595" lon="4.0105">
        <ele>84</ele>
        <time>2021-09-06T13:03:08Z</time>
      </trkpt>
      <trkpt lat="50.58504" lon="4.01191">
        <ele>83</ele>
        <time>2021-09-06T13:04:51Z</time>
      </trkpt>
      <trkpt lat="50.58454" lon="4.01294">
        <ele>83</ele>
        <time>2021-09-06T13:05:56Z</time>
      </trkpt>
      <trkpt lat="50.58313" lon="4.01529">
        <ele>77</ele>
        <time>2021-09-06T13:08:41Z</time>
      </trkpt>
      <trkpt lat="50.58302" lon="4.01542">
        <ele>77</ele>
        <time>2021-09-06T13:08:52Z</time>
      </trkpt>
      <trkpt lat="50.58258" lon="4.01583">
        <ele>78</ele>
        <time>2021-09-06T13:09:33Z</time>
      </trkpt>
      <trkpt lat="50.58226" lon="4.0163">
        <ele>80</ele>
        <time>2021-09-06T13:10:08Z</time>
      </trkpt>
      <trkpt lat="50.58217" lon="4.01674">
        <ele>79</ele>
        <time>2021-09-06T13:10:31Z</time>
      </trkpt>
      <trkpt lat="50.5821" lon="4.01753">
        <ele>79</ele>
        <time>2021-09-06T13:11:12Z</time>
      </trkpt>
      <trkpt lat="50.58195" lon="4.01873">
        <ele>80</ele>
        <time>2021-09-06T13:12:14Z</time>
      </trkpt>
      <trkpt lat="50.58189" lon="4.01904">
        <ele>80</ele>
        <time>2021-09-06T13:12:31Z</time>
      </trkpt>
      <trkpt lat="50.58174" lon="4.01952">
        <ele>81</ele>
        <time>2021-09-06T13:12:58Z</time>
      </trkpt>
      <trkpt lat="50.58166" lon="4.01987">
        <ele>81</ele>
        <time>2021-09-06T13:13:17Z</time>
      </trkpt>
      <trkpt lat="50.58163" lon="4.02032">
        <ele>81</ele>
        <time>2021-09-06T13:13:40Z</time>
      </trkpt>
      <trkpt lat="50.58164" lon="4.02088">
        <ele>80</ele>
        <time>2021-09-06T13:14:08Z</time>
      </trkpt>
      <trkpt lat="50.58167" lon="4.02121">
        <ele>81</ele>
        <time>2021-09-06T13:14:25Z</time>
      </trkpt>
      <trkpt lat="50.58164" lon="4.02143">
        <ele>81</ele>
        <time>2021-09-06T13:14:37Z</time>
      </trkpt>
      <trkpt lat="50.58138" lon="4.02243">
        <ele>83</ele>
        <time>2021-09-06T13:15:31Z</time>
      </trkpt>
      <trkpt lat="50.58095" lon="4.02368">
        <ele>82</ele>
        <time>2021-09-06T13:16:44Z</time>
      </trkpt>
      <trkpt lat="50.5809" lon="4.02389">
        <ele>83</ele>
        <time>2021-09-06T13:16:55Z</time>
      </trkpt>
      <trkpt lat="50.58089" lon="4.02406">
        <ele>83</ele>
        <time>2021-09-06T13:17:04Z</time>
      </trkpt>
      <trkpt lat="50.5809" lon="4.02424">
        <ele>83</ele>
        <time>2021-09-06T13:17:13Z</time>
      </trkpt>
      <trkpt lat="50.58106" lon="4.02506">
        <ele>84</ele>
        <time>2021-09-06T13:17:57Z</time>
      </trkpt>
      <trkpt lat="50.58111" lon="4.02559">
        <ele>84</ele>
        <time>2021-09-06T13:18:24Z</time>
      </trkpt>
      <trkpt lat="50.58111" lon="4.0259">
        <ele>84</ele>
        <time>2021-09-06T13:18:40Z</time>
      </trkpt>
      <trkpt lat="50.58128" lon="4.02683">
        <ele>85</ele>
        <time>2021-09-06T13:19:29Z</time>
      </trkpt>
      <trkpt lat="50.58129" lon="4.02705">
        <ele>85</ele>
        <time>2021-09-06T13:19:40Z</time>
      </trkpt>
      <trkpt lat="50.58117" lon="4.02839">
        <ele>86</ele>
        <time>2021-09-06T13:20:49Z</time>
      </trkpt>
      <trkpt lat="50.58106" lon="4.02915">
        <ele>86</ele>
        <time>2021-09-06T13:21:28Z</time>
      </trkpt>
      <trkpt lat="50.58087" lon="4.02992">
        <ele>86</ele>
        <time>2021-09-06T13:22:10Z</time>
      </trkpt>
      <trkpt lat="50.58083" lon="4.03018">
        <ele>86</ele>
        <time>2021-09-06T13:22:24Z</time>
      </trkpt>
      <trkpt lat="50.58102" lon="4.03143">
        <ele>86</ele>
        <time>2021-09-06T13:23:29Z</time>
      </trkpt>
      <trkpt lat="50.58102" lon="4.03195">
        <ele>86</ele>
        <time>2021-09-06T13:23:56Z</time>
      </trkpt>
      <trkpt lat="50.58096" lon="4.03306">
        <ele>86</ele>
        <time>2021-09-06T13:24:53Z</time>
      </trkpt>
      <trkpt lat="50.58078" lon="4.03398">
        <ele>88</ele>
        <time>2021-09-06T13:25:41Z</time>
      </trkpt>
      <trkpt lat="50.58078" lon="4.03468">
        <ele>90</ele>
        <time>2021-09-06T13:26:17Z</time>
      </trkpt>
      <trkpt lat="50.5807" lon="4.03727">
        <ele>93</ele>
        <time>2021-09-06T13:28:29Z</time>
      </trkpt>
      <trkpt lat="50.58103" lon="4.04097">
        <ele>92</ele>
        <time>2021-09-06T13:31:39Z</time>
      </trkpt>
      <trkpt lat="50.58111" lon="4.0432">
        <ele>92</ele>
        <time>2021-09-06T13:33:32Z</time>
      </trkpt>
      <trkpt lat="50.5813" lon="4.04465">
        <ele>92</ele>
        <time>2021-09-06T13:34:48Z</time>
      </trkpt>
      <trkpt lat="50.58139" lon="4.04666">
        <ele>90</ele>
        <time>2021-09-06T13:36:30Z</time>
      </trkpt>
      <trkpt lat="50.58122" lon="4.04936">
        <ele>88</ele>
        <time>2021-09-06T13:38:48Z</time>
      </trkpt>
      <trkpt lat="50.58128" lon="4.04997">
        <ele>88</ele>
        <time>2021-09-06T13:39:19Z</time>
      </trkpt>
      <trkpt lat="50.58127" lon="4.05035">
        <ele>88</ele>
        <time>2021-09-06T13:39:39Z</time>
      </trkpt>
      <trkpt lat="50.58116" lon="4.05081">
        <ele>87</ele>
        <time>2021-09-06T13:40:04Z</time>
      </trkpt>
      <trkpt lat="50.58115" lon="4.05128">
        <ele>88</ele>
        <time>2021-09-06T13:40:28Z</time>
      </trkpt>
      <trkpt lat="50.58137" lon="4.05296">
        <ele>89</ele>
        <time>2021-09-06T13:41:55Z</time>
      </trkpt>
      <trkpt lat="50.58135" lon="4.05321">
        <ele>88</ele>
        <time>2021-09-06T13:42:08Z</time>
      </trkpt>
      <trkpt lat="50.58126" lon="4.05359">
        <ele>89</ele>
        <time>2021-09-06T13:42:28Z</time>
      </trkpt>
      <trkpt lat="50.58073" lon="4.05547">
        <ele>91</ele>
        <time>2021-09-06T13:44:13Z</time>
      </trkpt>
      <trkpt lat="50.58075" lon="4.05612">
        <ele>91</ele>
        <time>2021-09-06T13:44:46Z</time>
      </trkpt>
      <trkpt lat="50.5804" lon="4.05812">
        <ele>91</ele>
        <time>2021-09-06T13:46:31Z</time>
      </trkpt>
      <trkpt lat="50.58048" lon="4.05826">
        <ele>91</ele>
        <time>2021-09-06T13:46:41Z</time>
      </trkpt>
      <trkpt lat="50.5806" lon="4.05839">
        <ele>90</ele>
        <time>2021-09-06T13:46:53Z</time>
      </trkpt>
      <trkpt lat="50.58071" lon="4.05844">
        <ele>90</ele>
        <time>2021-09-06T13:47:02Z</time>
      </trkpt>
      <trkpt lat="50.58063" lon="4.05936">
        <ele>88</ele>
        <time>2021-09-06T13:47:49Z</time>
      </trkpt>
      <trkpt lat="50.58056" lon="4.05942">
        <ele>88</ele>
        <time>2021-09-06T13:47:55Z</time>
      </trkpt>
      <trkpt lat="50.58061" lon="4.05954">
        <ele>87</ele>
        <time>2021-09-06T13:48:03Z</time>
      </trkpt>
      <trkpt lat="50.58064" lon="4.05956">
        <ele>87</ele>
        <time>2021-09-06T13:48:05Z</time>
      </trkpt>
      <trkpt lat="50.58059" lon="4.06032">
        <ele>86</ele>
        <time>2021-09-06T13:48:44Z</time>
      </trkpt>
      <trkpt lat="50.58054" lon="4.06034">
        <ele>86</ele>
        <time>2021-09-06T13:48:48Z</time>
      </trkpt>
      <trkpt lat="50.5805" lon="4.06041">
        <ele>86</ele>
        <time>2021-09-06T13:48:53Z</time>
      </trkpt>
      <trkpt lat="50.58055" lon="4.06052">
        <ele>86</ele>
        <time>2021-09-06T13:49:00Z</time>
      </trkpt>
      <trkpt lat="50.5805" lon="4.06149">
        <ele>87</ele>
        <time>2021-09-06T13:49:50Z</time>
      </trkpt>
      <trkpt lat="50.58106" lon="4.06164">
        <ele>85</ele>
        <time>2021-09-06T13:50:35Z</time>
      </trkpt>
      <trkpt lat="50.58071" lon="4.06265">
        <ele>85</ele>
        <time>2021-09-06T13:51:33Z</time>
      </trkpt>
      <trkpt lat="50.58049" lon="4.06337">
        <ele>86</ele>
        <time>2021-09-06T13:52:14Z</time>
      </trkpt>
      <trkpt lat="50.58054" lon="4.06345">
        <ele>86</ele>
        <time>2021-09-06T13:52:20Z</time>
      </trkpt>
      <trkpt lat="50.58083" lon="4.06373">
        <ele>85</ele>
        <time>2021-09-06T13:52:47Z</time>
      </trkpt>
      <trkpt lat="50.58085" lon="4.06387">
        <ele>84</ele>
        <time>2021-09-06T13:52:54Z</time>
      </trkpt>
      <trkpt lat="50.58057" lon="4.06484">
        <ele>84</ele>
        <time>2021-09-06T13:53:49Z</time>
      </trkpt>
      <trkpt lat="50.58057" lon="4.06499">
        <ele>84</ele>
        <time>2021-09-06T13:53:56Z</time>
      </trkpt>
      <trkpt lat="50.58065" lon="4.06506">
        <ele>84</ele>
        <time>2021-09-06T13:54:03Z</time>
      </trkpt>
      <trkpt lat="50.58181" lon="4.0657">
        <ele>81</ele>
        <time>2021-09-06T13:55:42Z</time>
      </trkpt>
      <trkpt lat="50.58169" lon="4.06621">
        <ele>80</ele>
        <time>2021-09-06T13:56:10Z</time>
      </trkpt>
      <trkpt lat="50.5814" lon="4.06833">
        <ele>80</ele>
        <time>2021-09-06T13:58:00Z</time>
      </trkpt>
      <trkpt lat="50.58147" lon="4.06842">
        <ele>80</ele>
        <time>2021-09-06T13:58:07Z</time>
      </trkpt>
      <trkpt lat="50.5823" lon="4.06763">
        <ele>81</ele>
        <time>2021-09-06T13:59:25Z</time>
      </trkpt>
      <trkpt lat="50.58237" lon="4.06776">
        <ele>81</ele>
        <time>2021-09-06T13:59:33Z</time>
      </trkpt>
      <trkpt lat="50.58275" lon="4.06824">
        <ele>80</ele>
        <time>2021-09-06T14:00:12Z</time>
      </trkpt>
      <trkpt lat="50.58359" lon="4.06887">
        <ele>80</ele>
        <time>2021-09-06T14:01:27Z</time>
      </trkpt>
      <trkpt lat="50.58392" lon="4.07002">
        <ele>78</ele>
        <time>2021-09-06T14:02:31Z</time>
      </trkpt>
      <trkpt lat="50.58401" lon="4.07051">
        <ele>78</ele>
        <time>2021-09-06T14:02:57Z</time>
      </trkpt>
      <trkpt lat="50.58418" lon="4.07044">
        <ele>78</ele>
        <time>2021-09-06T14:03:11Z</time>
      </trkpt>
      <trkpt lat="50.58489" lon="4.07039">
        <ele>77</ele>
        <time>2021-09-06T14:04:08Z</time>
      </trkpt>
      <trkpt lat="50.58605" lon="4.0702">
        <ele>77</ele>
        <time>2021-09-06T14:05:41Z</time>
      </trkpt>
      <trkpt lat="50.58605" lon="4.07">
        <ele>77</ele>
        <time>2021-09-06T14:05:51Z</time>
      </trkpt>
    </trkseg>
  </trk>
</gpx>